createdAt,value
2022-09-15T00:16:19.335Z,239
2022-09-15T00:36:19.487Z,237
2022-09-15T00:56:19.518Z,233
2022-09-15T01:16:19.540Z,233
2022-09-15T01:56:19.500Z,223
2022-09-15T02:16:19.569Z,225
2022-09-15T02:36:19.504Z,224
2022-09-15T02:56:19.474Z,223
2022-09-15T03:16:19.361Z,218
2022-09-15T03:36:19.476Z,224
2022-09-15T03:56:18.961Z,226
2022-09-15T04:16:19.520Z,223
2022-09-15T04:36:19.466Z,218
2022-09-15T04:56:19.480Z,219
2022-09-15T05:16:19.522Z,219
2022-09-15T05:36:19.297Z,222
2022-09-15T05:56:19.470Z,216
2022-09-15T06:16:19.636Z,216
2022-09-15T06:36:19.488Z,215
2022-09-15T06:56:19.462Z,218
2022-09-15T07:16:19.515Z,216
2022-09-15T07:36:19.470Z,214
2022-09-15T07:56:19.462Z,209
2022-09-15T08:16:19.580Z,206
2022-09-15T08:36:19.502Z,209
2022-09-15T08:56:19.448Z,208
2022-09-15T09:16:19.022Z,207
2022-09-15T09:36:19.439Z,205
2022-09-15T09:56:19.421Z,199
2022-09-15T10:16:19.470Z,199
2022-09-15T10:36:19.411Z,196
2022-09-15T10:56:19.489Z,198
2022-09-15T11:16:19.453Z,195
2022-09-15T11:56:19.395Z,184
2022-09-15T12:36:19.478Z,194
2022-09-15T12:56:19.382Z,199
2022-09-15T13:16:19.256Z,200
2022-09-15T13:36:19.419Z,198
2022-09-15T13:56:19.365Z,186
2022-09-15T14:16:19.386Z,184
2022-09-15T14:36:19.352Z,188
2022-09-15T14:56:18.837Z,190
2022-09-15T15:16:19.380Z,186
2022-09-15T15:36:19.335Z,185
2022-09-15T15:56:19.353Z,183
2022-09-15T16:16:19.346Z,184
2022-09-15T16:36:19.106Z,186
2022-09-15T16:56:18.808Z,186
2022-09-15T17:16:19.488Z,186
2022-09-15T17:36:19.295Z,184
2022-09-15T17:56:19.286Z,185
2022-09-15T18:16:19.305Z,188
2022-09-15T18:36:19.357Z,185
2022-09-15T18:56:19.288Z,187
2022-09-15T19:16:22.636Z,189
2022-09-15T19:36:27.801Z,187
2022-09-15T19:56:19.269Z,187
2022-09-15T20:16:19.075Z,186
2022-09-15T20:36:19.275Z,185
2022-09-15T20:56:19.063Z,186
2022-09-15T21:16:19.309Z,186
2022-09-15T21:36:19.057Z,185
2022-09-15T21:56:19.238Z,185
2022-09-15T22:16:19.317Z,184
2022-09-15T22:36:19.258Z,184
2022-09-15T22:56:19.258Z,183
2022-09-15T23:16:19.275Z,183
2022-09-15T23:36:18.745Z,183
2022-09-15T23:56:19.238Z,182
